PDT,Max TemperatureF,Mean TemperatureF,Min TemperatureF,Max Dew PointF,MeanDew PointF,Min DewpointF,Max Humidity, Mean Humidity, Min Humidity, Max Sea Level PressureIn, Mean Sea Level PressureIn, Min Sea Level PressureIn, Max VisibilityMiles, Mean VisibilityMiles, Min VisibilityMiles, Max Wind SpeedMPH, Mean Wind SpeedMPH, Max Gust SpeedMPH,PrecipitationIn, CloudCover, Events, WindDirDegrees
2013-3-1,54,38,21,30,25,19,92,64,35,30.60,30.49,30.40,10,10,10,14,7,16,0.00,0,,168
2013-3-2,55,40,24,30,27,23,92,64,35,30.45,30.27,29.99,10,10,10,16,8,21,0.00,0,,180
2013-3-3,45,39,32,36,31,25,89,70,51,30.03,29.93,29.88,10,10,10,13,5,15,0.02,7,Rain,316
2013-3-4,46,36,26,30,24,20,89,65,40,30.17,30.05,29.92,10,10,10,13,6,21,0.00,3,,336
2013-3-5,53,39,24,25,21,19,81,55,29,30.15,29.97,29.75,10,10,10,26,16,35,0.00,0,,171
2013-3-6,53,43,33,28,24,16,75,50,24,29.90,29.74,29.65,10,10,10,30,17,41,0.00,4,,202
2013-3-7,44,36,28,29,25,16,92,62,31,29.93,29.85,29.77,10,9,4,23,12,30,T,7,Snow,53
2013-3-8,38,33,28,31,29,27,100,82,64,29.86,29.76,29.65,10,6,0,25,11,31,0.19,8,Fog-Snow,4
2013-3-9,45,36,26,27,23,18,100,69,37,30.27,30.00,29.78,10,9,2,29,16,38,0.03,4,Snow,350
2013-3-10,51,35,19,22,18,14,84,53,22,30.41,30.32,30.24,10,10,10,17,7,22,0.00,0,,335
2013-3-11,54,38,21,25,22,15,92,60,28,30.35,30.25,30.18,10,10,10,15,7,22,0.00,0,,203
2013-3-12,60,42,24,27,25,21,88,58,28,30.29,30.23,30.16,10,10,10,13,7,16,0.00,0,,189
2013-3-13,68,48,27,29,24,17,92,54,15,30.36,30.26,30.17,10,10,10,15,8,17,0.00,0,,176
2013-3-14,72,52,31,29,25,14,75,43,11,30.30,30.16,30.05,10,10,10,20,9,25,0.00,0,,181
2013-3-15,67,49,31,28,24,19,75,46,16,30.22,30.00,29.91,10,10,10,16,7,20,0.00,0,,203
2013-3-16,61,46,30,26,20,12,72,45,17,30.04,29.87,29.77,10,10,10,25,6,32,0.00,2,,232
2013-3-17,53,38,23,25,13,6,63,40,16,29.98,29.87,29.79,10,10,10,31,11,38,0.00,0,,276
2013-3-18,54,36,18,18,12,8,74,45,16,30.11,30.03,29.99,10,10,10,22,7,30,0.00,1,,258
2013-3-19,55,45,35,26,22,16,55,42,29,30.14,30.04,29.99,10,10,10,14,7,17,0.00,5,,177
2013-3-20,59,47,34,32,26,22,54,40,26,29.96,29.83,29.73,10,10,10,23,8,30,T,4,Rain,205
2013-3-21,47,36,24,28,14,3,56,37,17,30.02,29.88,29.74,10,10,4,21,9,32,T,3,Snow,321
2013-3-22,40,26,12,12,7,5,76,51,25,30.06,29.94,29.87,10,10,10,23,9,30,T,2,,315
2013-3-23,39,27,14,16,3,-4,68,43,17,30.24,30.14,30.07,10,10,4,18,6,22,T,5,Snow,350
2013-3-24,49,30,11,12,6,1,67,41,15,30.20,30.11,30.04,10,10,10,21,6,25,0.00,4,,359
2013-3-25,58,43,28,17,15,13,58,39,19,30.11,29.96,29.82,10,10,10,21,7,21,0.00,4,,174
2013-3-26,61,48,34,21,15,11,48,31,14,29.85,29.78,29.70,10,10,10,20,9,26,0.00,3,,252
2013-3-27,63,44,24,22,18,11,74,44,14,29.94,29.86,29.82,10,10,10,18,9,30,0.00,2,,187
2013-3-28,62,45,28,30,24,19,75,47,19,30.01,29.93,29.86,10,10,10,24,7,35,0.00,2,,205
2013-3-29,61,45,28,30,27,23,78,52,26,30.14,30.09,30.04,10,10,10,25,6,35,T,4,,163
2013-3-30,65,48,30,30,26,24,78,50,22,30.18,30.07,29.99,10,10,10,17,6,23,0.00,3,,174
2013-3-31,61,46,31,37,30,25,85,57,29,30.06,29.94,29.82,10,10,8,44,8,55,0.01,6,Rain-Thunderstorm,208